Pagina principală
METAR-TAF:

METAR-TAF

Aeroporturi :

Red Oak Municipal Airport

Red Oak, Iowa, Statele Unite ale Americii

Latitudine: 41-01N, longitudine: 095-16W, elevație: 318 m

Observații meteo curente

Raportul a fost făcut în urmă cu 34 de minute, la 13:15 UTC
Vânt 9 kt de la Est cu rafale de până la 14 kt
Temperatură 20°C
Umiditate 100%
Presiune 1015 hPa
Vizibilitate: 16.1 km
Nori puțini la o înălțime de 4300 picior
Nori împrăștiați la o înălțime de 7000 picior
Nori fragmentați la o înălțime de 12000 picior
burniță slabă

METAR: KRDK 151315Z AUTO 08009G14KT 10SM -DZ FEW043 SCT070 BKN120 20/20 A2998 RMK AO2

Ora: 08:49 (13:49 UTC)


TAF: lipsă

Observații și prognoze meteo pentru peste 4.000 de aeroporturi (rapoarte METAR și TAF).

Stațiile disponibile sunt reprezentate pe hartă prin puncte galbene și roșii.

Țineți indicatorul mouse-ului pe punctul dorit pentru a vedea denumirea stației.

Apoi, faceți clic pentru a vedea observațiile și prognozele meteorologice.

Pentru a schimba harta: Pentru mărire, faceți clic pe butoanele verzi cu cruce neagră; pentru micșorare, pe butonul verde cu o liniuță; pentru hărți învecinate, pe săgețile verzi.


METAR-TAF: